SEKCJA WYDRUKÓW, pokaż »

METAR EPBY 171200Z 25012G24KT 220V280 CAVOK 25/13 Q1018=

METAR EPGD 171200Z 25012KT CAVOK 23/12 Q1017 =

METAR EPKK 171200Z VRB03KT 9999 FEW043 28/17 Q1018 =

METAR EPKT 171200Z 32005KT CAVOK 25/16 Q1020 =

METAR EPLB 171200Z 34005KT 9999 FEW047 29/18 Q1018 =

METAR EPLL 171200Z 24011KT 200V280 CAVOK 26/13 Q1019 =

METAR EPML 171200Z AUTO 05006KT 9999 -RA FEW160/// 27/16 Q1018=

METAR EPMO 171200Z 21010KT 180V250 CAVOK 29/16 Q1018 =

METAR EPPO 171200Z 25010KT CAVOK 25/14 Q1019 =

METAR EPRA 171200Z 22004KT 150V280 9999 SCT043 28/18 Q1019=

METAR EPRZ 171200Z 23009KT 9999 TS SCT020CB 25/20 Q1020 =

METAR EPSC 171200Z 23011KT 200V260 9999 SCT036 22/14 Q1017 =

METAR EPSY 171200Z 22011KT 190V260 CAVOK 27/14 Q1017=

METAR EPWA 171200Z 26007KT 220V290 9999 FEW042 27/17 Q1018 NOSIG=

METAR EPWR 171200Z 17005KT 140V200 CAVOK 24/13 Q1020 =

METAR EPZG 171200Z 24011KT 200V270 CAVOK 24/13 Q1019 =
 METAR EPPO
Lokalizacja:EPPO Poznań Ławica
Czas:12:00 UTC
Średni kierunek wiatru:250 °
Średnia prędkość wiatru:10 węzłów
CAVOK:Widzialność 10 km i więcej, zjawisko: NIL, zachmurzenie: NSC
Temperatura powietrza:25 °C
Temperatura punktu rosy:14 °C
Ciśnienie QNH:1019 hPa